Time;durP1;ratioP1;P1;durP2;ratioP2;P2;SDS_P1;SDS_P2;PMS_P1;PMS_P2;Temp;Humidity;BMP_temperature;BMP_pressure;BME280_temperature;BME280_humidity;BME280_pressure;Samples;Min_cycle;Max_cycle;Signal;HPM_P1;HPM_P2
2022/01/25 00:27:48;;;;;;;31.27;17.85;;;;;;;11.61;61.22;102798.47;4912579;28;121529;-86
2022/01/25 00:30:29;;;;;;;30.10;18.05;;;;;;;11.43;61.15;102777.78;4925702;28;119693;-83
2022/01/25 00:32:55;;;;;;;28.77;18.02;;;;;;;11.64;62.42;102816.09;4907290;28;122790;-86
2022/01/25 00:35:21;;;;;;;30.50;17.73;;;;;;;11.67;62.67;102807.81;4941751;28;120948;-86
2022/01/25 00:37:47;;;;;;;34.03;19.52;;;;;;;11.68;62.28;102803.88;4925436;28;120406;-82
2022/01/25 00:40:13;;;;;;;30.50;17.92;;;;;;;11.71;62.14;102796.00;4923196;28;121397;-84
2022/01/25 00:42:38;;;;;;;30.95;19.15;;;;;;;11.74;61.31;102792.44;4922861;28;120713;-82
2022/01/25 00:45:05;;;;;;;31.67;19.02;;;;;;;11.77;62.05;102799.88;4925802;28;120129;-86
2022/01/25 00:47:31;;;;;;;34.17;18.80;;;;;;;11.69;61.65;102790.91;4923846;28;120564;-84
2022/01/25 00:49:57;;;;;;;31.48;19.13;;;;;;;11.64;61.73;102786.66;4928978;28;120350;-85
2022/01/25 00:54:51;;;;;;;34.00;19.63;;;;;;;11.52;61.40;102767.09;4961288;28;122948;-85
2022/01/25 00:57:17;;;;;;;30.42;18.83;;;;;;;11.47;61.40;102762.06;4944624;28;120296;-83
2022/01/25 00:59:44;;;;;;;32.67;19.25;;;;;;;11.46;61.22;102758.53;4958316;28;122351;-85
2022/01/25 01:02:12;;;;;;;30.88;18.50;;;;;;;11.76;61.49;102801.84;4928907;28;123249;-84
2022/01/25 01:04:43;;;;;;;29.92;17.80;;;;;;;11.60;60.78;102785.91;4929320;28;120076;-87
2022/01/25 01:07:14;;;;;;;26.70;17.48;;;;;;;11.72;62.89;102789.31;4971757;28;119760;-80
2022/01/25 01:09:45;;;;;;;26.80;16.48;;;;;;;11.76;62.82;102801.06;4925690;28;122994;-87
2022/01/25 01:12:23;;;;;;;34.03;18.83;;;;;;;11.54;61.90;102764.72;4944466;28;119707;-82
2022/01/25 01:15:21;;;;;;;29.30;17.33;;;;;;;11.63;62.30;102774.09;4944097;28;123189;-82
2022/01/25 01:31:26;;;;;;;32.90;18.43;;;;;;;11.87;62.25;102799.03;4950680;28;120422;-79
2022/01/25 02:57:23;;;;;;;31.90;15.38;;;;;;;11.73;62.49;102771.63;4944036;28;120343;-86
2022/01/25 02:59:49;;;;;;;35.83;15.77;;;;;;;11.76;62.29;102770.81;4933925;28;120596;-81
2022/01/25 03:02:16;;;;;;;28.45;15.23;;;;;;;11.76;61.84;102768.06;4948738;28;119573;-82
2022/01/25 03:04:42;;;;;;;28.80;14.38;;;;;;;11.69;61.34;102757.94;4929684;28;123080;-85
2022/01/25 03:07:08;;;;;;;23.67;13.30;;;;;;;11.66;61.31;102747.75;4932402;28;120147;-84
2022/01/25 03:09:35;;;;;;;32.30;14.07;;;;;;;11.79;61.43;102767.28;4931483;28;121497;-85
2022/01/25 03:12:04;;;;;;;25.67;13.90;;;;;;;11.83;61.52;102771.56;4945916;28;120394;-81
2022/01/25 03:14:33;;;;;;;30.58;13.80;;;;;;;11.80;60.86;102760.59;4933100;28;120483;-84
2022/01/25 03:19:51;;;;;;;24.27;12.30;;;;;;;11.83;61.83;102762.53;4948063;28;119712;-82
2022/01/25 03:22:17;;;;;;;29.10;12.18;;;;;;;11.79;61.45;102751.56;4945184;28;122743;-84
2022/01/25 03:24:44;;;;;;;27.52;12.48;;;;;;;11.76;61.16;102746.06;4928007;28;122375;-85
2022/01/25 05:16:28;;;;;;;21.23;6.03;;;;;;;11.68;61.45;102731.63;4941383;28;120291;-84
2022/01/25 05:18:50;;;;;;;16.65;5.63;;;;;;;11.64;61.66;102720.66;4975791;28;123711;-86
2022/01/25 06:22:56;;;;;;;17.88;5.65;;;;;;;11.61;62.46;102720.72;4937435;28;121000;-84
2022/01/25 06:25:22;;;;;;;16.45;5.93;;;;;;;11.65;62.81;102726.94;4946228;28;122144;-86
2022/01/25 06:27:48;;;;;;;18.98;6.80;;;;;;;11.63;62.89;102716.34;4929600;28;124702;-86
2022/01/25 06:30:17;;;;;;;21.88;6.35;;;;;;;11.77;62.63;102733.88;4929883;28;119651;-85
2022/01/25 06:32:44;;;;;;;19.50;6.18;;;;;;;11.78;62.32;102727.19;4929198;28;123390;-83
2022/01/25 06:35:10;;;;;;;19.88;6.57;;;;;;;11.48;62.15;102687.44;4953941;28;120485;-85
2022/01/25 06:37:36;;;;;;;22.42;6.43;;;;;;;11.82;62.17;102737.00;4931333;28;122120;-86
2022/01/25 06:40:07;;;;;;;16.48;6.13;;;;;;;11.73;62.23;102713.91;4944333;28;120999;-87
2022/01/25 06:42:34;;;;;;;17.52;5.95;;;;;;;11.74;62.46;102718.22;4958406;28;120487;-81
2022/01/25 06:45:03;;;;;;;18.45;6.15;;;;;;;11.79;62.31;102720.53;4965109;28;119943;-86
2022/01/25 06:47:29;;;;;;;22.20;6.05;;;;;;;11.66;62.29;102701.78;4930207;28;123441;-85
2022/01/25 06:49:56;;;;;;;20.38;7.28;;;;;;;11.75;62.31;102717.00;4944559;28;119566;-82
2022/01/25 06:52:23;;;;;;;20.73;6.38;;;;;;;11.87;62.67;102747.56;4932555;28;121740;-86
2022/01/25 06:54:49;;;;;;;20.75;6.60;;;;;;;11.71;62.27;102719.03;4945405;28;120521;-85
2022/01/25 06:57:14;;;;;;;21.45;6.40;;;;;;;11.77;62.42;102729.16;4932960;28;119890;-84
2022/01/25 06:59:40;;;;;;;21.17;6.65;;;;;;;11.79;62.14;102739.78;4915026;28;123117;-86
2022/01/25 07:02:06;;;;;;;18.48;6.63;;;;;;;11.85;62.87;102740.91;4932065;28;120092;-83
2022/01/25 07:04:32;;;;;;;21.10;6.05;;;;;;;11.78;62.79;102718.94;4945744;28;120499;-85
2022/01/25 07:07:00;;;;;;;20.70;6.22;;;;;;;11.51;62.97;102694.88;4929603;28;123857;-82
2022/01/25 07:09:28;;;;;;;24.48;6.30;;;;;;;11.87;62.66;102735.78;4929951;28;120016;-84
2022/01/25 07:11:53;;;;;;;16.98;5.70;;;;;;;11.74;62.98;102721.75;4945430;28;122288;-86
2022/01/25 07:14:19;;;;;;;19.95;6.63;;;;;;;11.57;62.77;102697.94;4944268;28;122298;-86
2022/01/25 07:16:46;;;;;;;19.23;6.10;;;;;;;11.81;62.50;102727.19;4949180;28;120009;-84
2022/01/25 07:19:13;;;;;;;21.20;6.72;;;;;;;11.71;62.47;102708.81;4948659;28;122424;-87
2022/01/25 07:21:41;;;;;;;19.63;6.28;;;;;;;11.81;62.22;102718.94;4948150;28;119937;-84
2022/01/25 07:24:07;;;;;;;18.20;6.05;;;;;;;11.68;62.80;102704.91;4930616;28;122282;-84
2022/01/25 07:26:32;;;;;;;18.73;6.50;;;;;;;11.84;62.56;102723.63;4946008;28;120192;-82
2022/01/25 07:28:58;;;;;;;16.98;6.90;;;;;;;11.82;62.61;102711.47;4930455;28;119987;-85
2022/01/25 07:31:24;;;;;;;19.08;6.30;;;;;;;11.69;62.33;102691.94;4945208;28;122738;-85
2022/01/25 07:33:49;;;;;;;22.08;7.05;;;;;;;11.77;62.30;102709.13;4944009;28;123388;-87
2022/01/25 07:36:15;;;;;;;23.73;6.55;;;;;;;11.55;62.56;102678.34;4947315;28;119596;-85
2022/01/25 07:38:41;;;;;;;20.13;6.10;;;;;;;11.75;63.38;102712.28;4931125;28;122338;-82
2022/01/25 07:41:06;;;;;;;20.20;6.22;;;;;;;11.83;62.55;102721.28;4946167;28;120127;-87
2022/01/25 07:43:33;;;;;;;18.17;5.78;;;;;;;11.83;62.53;102721.28;4945562;28;122186;-87
2022/01/25 07:46:04;;;;;;;18.48;6.90;;;;;;;11.91;62.64;102739.28;4929784;28;122215;-82
2022/01/25 07:48:30;;;;;;;19.20;6.38;;;;;;;11.94;62.65;102746.69;4931768;28;119778;-84
2022/01/25 07:50:56;;;;;;;17.70;6.60;;;;;;;11.74;62.70;102707.22;4945034;28;119659;-86
2022/01/25 07:53:21;;;;;;;23.02;6.97;;;;;;;11.91;62.78;102739.28;4928996;28;122796;-84
2022/01/25 07:55:47;;;;;;;18.67;6.85;;;;;;;11.95;62.97;102746.28;4946012;28;119640;-83
2022/01/25 07:58:16;;;;;;;18.58;6.15;;;;;;;11.95;62.73;102746.28;4948009;28;120169;-86
2022/01/25 08:00:41;;;;;;;21.40;6.13;;;;;;;11.91;62.96;102736.53;4944088;28;120397;-87
2022/01/25 08:03:07;;;;;;;19.77;6.20;;;;;;;11.69;62.69;102700.19;4933448;28;119620;-81
2022/01/25 08:05:36;;;;;;;19.20;6.68;;;;;;;11.92;62.46;102736.13;4947062;28;123043;-84
2022/01/25 08:08:05;;;;;;;19.80;6.18;;;;;;;11.79;62.76;102718.56;4929865;28;119666;-87
2022/01/25 08:10:31;;;;;;;21.10;6.65;;;;;;;11.88;63.22;102729.88;4945002;28;122398;-86
2022/01/25 08:12:57;;;;;;;19.17;6.90;;;;;;;11.80;62.76;102714.63;4946064;28;120361;-87
2022/01/25 08:15:24;;;;;;;20.10;6.50;;;;;;;11.90;63.17;102734.97;4929481;28;119884;-85
2022/01/25 08:17:50;;;;;;;22.80;6.38;;;;;;;11.91;62.63;102728.28;4930010;28;120185;-87
2022/01/25 08:20:15;;;;;;;23.88;6.63;;;;;;;11.86;62.73;102725.97;4912884;28;122263;-87
2022/01/25 08:22:44;;;;;;;23.77;6.60;;;;;;;11.62;63.52;102683.78;4916330;28;119625;-83
2022/01/25 08:25:09;;;;;;;19.58;6.57;;;;;;;11.64;63.09;102698.69;4943935;28;120458;-86
2022/01/25 08:27:35;;;;;;;16.92;6.22;;;;;;;12.02;62.81;102753.69;4947843;28;119695;-86
2022/01/25 08:30:03;;;;;;;25.80;6.80;;;;;;;11.87;63.41;102733.81;4951136;28;119912;-85
2022/01/25 08:32:29;;;;;;;17.92;6.25;;;;;;;11.98;62.95;102750.19;4977591;28;121098;-81
2022/01/25 08:34:58;;;;;;;18.10;7.18;;;;;;;11.77;62.83;102726.41;4948034;28;119843;-85
2022/01/25 08:37:26;;;;;;;21.48;7.05;;;;;;;11.71;63.46;102716.28;4977002;28;119957;-90
2022/01/25 08:39:52;;;;;;;20.20;7.72;;;;;;;11.85;63.30;102732.66;4942990;28;120276;-89
2022/01/25 08:42:18;;;;;;;24.58;8.57;;;;;;;11.90;64.36;102743.22;4945336;28;122352;-89
2022/01/25 08:44:44;;;;;;;21.52;6.80;;;;;;;12.04;63.79;102754.03;4952879;28;119576;-89
2022/01/25 08:47:09;;;;;;;21.80;6.75;;;;;;;11.90;63.77;102730.25;4947302;28;119686;-84
2022/01/25 08:49:36;;;;;;;21.38;7.00;;;;;;;12.04;63.71;102754.03;4942772;28;122227;-85
2022/01/25 08:52:05;;;;;;;17.83;6.70;;;;;;;11.95;63.18;102740.00;4914882;28;123167;-87
2022/01/25 08:54:32;;;;;;;17.52;7.50;;;;;;;11.78;64.36;102710.69;4935112;28;120079;-87
2022/01/25 08:56:58;;;;;;;20.75;7.05;;;;;;;12.03;64.00;102746.19;4945437;28;120057;-86
2022/01/25 08:59:24;;;;;;;22.00;7.25;;;;;;;11.80;63.71;102705.59;4930063;28;122745;-88
2022/01/25 09:01:49;;;;;;;24.42;7.15;;;;;;;11.75;63.54;102700.53;4960901;28;119900;-86
2022/01/25 09:04:15;;;;;;;19.90;7.15;;;;;;;11.99;63.46;102741.53;4932357;28;122498;-87
2022/01/25 09:06:41;;;;;;;25.83;6.90;;;;;;;11.88;63.58;102729.09;4954257;28;120227;-87
2022/01/25 09:09:09;;;;;;;21.00;6.93;;;;;;;12.08;63.45;102743.81;4942169;28;121598;-85
2022/01/25 09:11:37;;;;;;;21.10;7.53;;;;;;;12.05;63.50;102738.31;4925157;28;123344;-88
2022/01/25 09:14:03;;;;;;;19.95;6.90;;;;;;;11.70;63.39;102693.50;4945020;28;119833;-87
2022/01/25 09:16:28;;;;;;;21.48;6.88;;;;;;;11.87;63.22;102711.81;4935618;28;121722;-85
2022/01/25 09:18:54;;;;;;;20.13;6.95;;;;;;;11.88;63.27;102723.59;4919826;28;123027;-87
2022/01/25 09:21:20;;;;;;;20.13;6.90;;;;;;;12.07;63.77;102758.75;4954599;28;120984;-87
2022/01/25 09:23:45;;;;;;;18.33;7.13;;;;;;;12.01;63.61;102751.34;4926375;28;121422;-88
2022/01/25 09:26:11;;;;;;;21.08;7.03;;;;;;;11.84;63.78;102715.38;4909278;28;123949;-83
2022/01/25 09:28:37;;;;;;;20.60;6.65;;;;;;;11.71;63.93;102719.03;4928153;28;119613;-86
2022/01/25 09:31:03;;;;;;;26.00;7.75;;;;;;;12.13;63.81;102761.81;4914032;28;123421;-86
2022/01/25 09:33:30;;;;;;;16.98;6.35;;;;;;;12.14;63.70;102763.38;4956942;28;119983;-81
2022/01/25 09:35:59;;;;;;;18.15;6.70;;;;;;;12.10;63.75;102757.16;4943191;28;121466;-84
2022/01/25 09:38:25;;;;;;;19.45;6.65;;;;;;;12.09;63.88;102761.09;4922932;28;123353;-82
2022/01/25 09:40:52;;;;;;;28.65;7.43;;;;;;;12.09;63.44;102761.88;4939338;28;121441;-79
2022/01/25 09:43:20;;;;;;;22.52;6.80;;;;;;;11.75;63.69;102708.78;4939119;28;121255;-85
2022/01/25 09:45:47;;;;;;;23.75;7.63;;;;;;;12.00;63.99;102753.31;4972009;28;120110;-86
2022/01/25 09:48:17;;;;;;;17.10;7.10;;;;;;;12.15;63.75;102776.72;4926050;28;119568;-85
2022/01/25 09:50:43;;;;;;;22.77;7.65;;;;;;;12.16;63.85;102772.00;4975243;28;119889;-86
2022/01/25 09:53:09;;;;;;;16.00;6.30;;;;;;;12.01;64.66;102743.88;4925413;28;120119;-86
2022/01/25 09:55:41;;;;;;;17.30;6.97;;;;;;;12.12;63.78;102763.81;4944624;28;124160;-86
2022/01/25 09:58:08;;;;;;;17.95;6.95;;;;;;;12.17;64.08;102773.56;4939276;28;120375;-82
2022/01/25 10:00:36;;;;;;;22.20;6.97;;;;;;;12.19;63.87;102771.97;4936497;28;121107;-83
2022/01/25 10:03:25;;;;;;;20.88;6.60;;;;;;;12.08;64.75;102754.03;4937209;28;121996;-85
2022/01/25 10:05:55;;;;;;;20.20;7.00;;;;;;;12.25;64.67;102773.06;4953275;28;120128;-85
2022/01/25 10:08:26;;;;;;;18.00;6.30;;;;;;;12.20;64.26;102764.50;4945930;28;120706;-86
2022/01/25 10:10:59;;;;;;;20.05;6.28;;;;;;;12.25;63.97;102759.31;4929066;28;122771;-87
2022/01/25 10:13:26;;;;;;;15.17;6.40;;;;;;;12.30;63.90;102769.06;4966535;28;121489;-86
2022/01/25 10:16:00;;;;;;;18.40;6.43;;;;;;;12.20;64.04;102754.25;4942903;28;120195;-84
2022/01/25 10:18:53;;;;;;;20.48;7.32;;;;;;;12.32;63.93;102768.69;4951677;28;123590;-87
2022/01/25 10:21:26;;;;;;;20.13;6.20;;;;;;;12.33;64.50;102768.28;4937038;28;121446;-86
2022/01/25 10:24:04;;;;;;;17.13;6.07;;;;;;;12.35;64.17;102768.66;4927834;28;121683;-87
2022/01/25 10:26:41;;;;;;;22.58;6.95;;;;;;;12.34;65.10;102761.56;4943490;28;120920;-87
2022/01/25 10:29:09;;;;;;;19.85;6.32;;;;;;;12.41;64.37;102772.50;4927851;28;121002;-85
2022/01/25 10:31:40;;;;;;;18.75;7.25;;;;;;;12.45;64.40;102772.44;4929120;28;122107;-89
2022/01/25 10:34:11;;;;;;;17.33;7.03;;;;;;;12.48;64.21;102771.63;4948828;28;121308;-87
2022/01/25 10:36:49;;;;;;;18.50;6.68;;;;;;;12.48;63.50;102766.88;4945534;28;120518;-85
2022/01/25 10:39:28;;;;;;;22.05;7.32;;;;;;;12.44;63.92;102766.16;4943599;28;121143;-86
2022/01/25 10:42:17;;;;;;;24.95;7.85;;;;;;;12.45;64.08;102761.44;4926797;28;120042;-84
2022/01/25 10:45:04;;;;;;;22.05;7.32;;;;;;;12.52;64.33;102772.34;4962344;28;122339;-86
2022/01/25 10:47:39;;;;;;;22.42;7.38;;;;;;;12.51;64.14;102768.03;4944251;28;122916;-86
2022/01/25 10:50:21;;;;;;;20.73;7.20;;;;;;;12.41;63.53;102760.69;4944682;28;120202;-86
2022/01/25 10:52:47;;;;;;;23.13;7.43;;;;;;;12.47;63.77;102768.09;4929973;28;122991;-87
2022/01/25 10:55:14;;;;;;;27.35;8.48;;;;;;;12.42;64.01;102754.78;4950410;28;120297;-87
2022/01/25 10:57:40;;;;;;;25.88;8.57;;;;;;;12.15;63.70;102716.19;4953070;28;119865;-87
2022/01/25 11:00:09;;;;;;;22.70;7.50;;;;;;;12.46;63.92;102752.75;4946130;28;120537;-88
2022/01/25 11:02:36;;;;;;;30.77;8.80;;;;;;;12.32;63.75;102738.41;4914072;28;119782;-87
2022/01/25 11:05:09;;;;;;;22.17;7.75;;;;;;;12.45;63.80;102750.41;4946539;28;119638;-89
2022/01/25 11:07:44;;;;;;;27.70;7.97;;;;;;;12.44;64.31;102749.66;4940797;28;124175;-86
2022/01/25 11:10:17;;;;;;;30.38;9.48;;;;;;;12.38;63.93;102734.78;4973445;28;119716;-89
2022/01/25 11:12:58;;;;;;;27.80;8.70;;;;;;;12.45;63.81;102750.41;4959046;28;122545;-85
2022/01/25 11:15:24;;;;;;;23.50;7.85;;;;;;;12.42;64.18;102737.50;4938803;28;122783;-87
2022/01/25 11:17:50;;;;;;;26.63;9.77;;;;;;;12.41;64.41;102735.94;4948559;28;119725;-87
2022/01/25 11:20:16;;;;;;;26.85;8.13;;;;;;;12.40;64.28;102726.13;4948647;28;120250;-86
2022/01/25 11:22:44;;;;;;;24.05;9.40;;;;;;;12.45;64.21;102728.41;4928896;28;119832;-88
2022/01/25 11:25:14;;;;;;;23.85;8.30;;;;;;;12.28;64.09;102706.19;4948961;28;119832;-86
2022/01/25 11:27:42;;;;;;;24.27;8.73;;;;;;;12.40;64.07;102715.09;4944971;28;120408;-87
2022/01/25 11:30:17;;;;;;;26.80;10.20;;;;;;;12.41;65.68;102716.66;4945006;28;119960;-85
2022/01/25 11:32:48;;;;;;;32.78;8.77;;;;;;;12.45;65.23;102709.91;4945698;28;119797;-87
2022/01/25 11:35:20;;;;;;;27.52;9.60;;;;;;;12.48;64.59;102713.81;4936968;28;123512;-87
2022/01/25 11:37:48;;;;;;;29.20;8.80;;;;;;;12.22;64.40;102661.06;4946098;28;119714;-84
2022/01/25 11:40:26;;;;;;;28.80;9.27;;;;;;;12.55;63.82;102710.97;4912992;28;123257;-84
2022/01/25 11:42:56;;;;;;;28.70;9.82;;;;;;;12.51;64.47;102704.72;4932604;28;124010;-85
2022/01/25 11:45:24;;;;;;;26.48;8.70;;;;;;;12.53;64.62;102713.34;4949873;28;120002;-84
2022/01/25 11:47:51;;;;;;;30.45;8.65;;;;;;;12.57;64.27;102714.88;4914609;28;122984;-85
2022/01/25 11:50:17;;;;;;;25.83;8.27;;;;;;;12.55;64.04;102710.97;4942993;28;120109;-86
2022/01/25 11:52:51;;;;;;;27.80;8.50;;;;;;;12.53;63.94;102710.59;4936354;28;123049;-86
2022/01/25 11:55:20;;;;;;;28.55;9.02;;;;;;;12.50;64.19;102716.94;4942568;28;120413;-84
2022/01/25 11:58:00;;;;;;;30.50;8.75;;;;;;;12.48;63.75;102716.56;4922594;28;119700;-87
2022/01/25 12:00:41;;;;;;;27.55;8.50;;;;;;;12.45;64.01;102718.16;4914396;28;122646;-84
2022/01/25 12:03:20;;;;;;;30.15;8.65;;;;;;;12.40;64.13;102709.59;4945122;28;120683;-87
2022/01/25 12:06:06;;;;;;;25.35;8.98;;;;;;;12.45;64.24;102706.38;4935700;28;122628;-84
2022/01/25 12:11:31;;;;;;;27.52;8.68;;;;;;;12.45;64.62;102695.38;4945001;28;119622;-87
2022/01/25 12:14:13;;;;;;;31.95;9.65;;;;;;;12.43;64.61;102686.75;4960612;28;121383;-82
2022/01/25 12:17:03;;;;;;;30.90;9.55;;;;;;;12.48;64.37;102700.81;4943204;28;123427;-86
2022/01/25 12:19:50;;;;;;;28.50;9.90;;;;;;;12.49;64.30;102693.34;4936481;28;119839;-86
2022/01/25 12:25:17;;;;;;;26.30;9.45;;;;;;;12.47;64.07;102699.25;4940923;28;123368;-86
2022/01/25 12:27:57;;;;;;;36.55;9.80;;;;;;;12.45;64.07;102695.38;4927011;28;120088;-84
2022/01/25 12:30:26;;;;;;;32.60;9.52;;;;;;;12.44;64.11;102689.09;4947529;28;120110;-83
2022/01/25 12:33:18;;;;;;;31.48;9.40;;;;;;;12.43;64.18;102687.53;4940886;28;121745;-87
2022/01/25 12:35:47;;;;;;;26.40;8.95;;;;;;;12.43;64.23;102693.03;4957263;28;120292;-87
2022/01/25 12:38:16;;;;;;;28.15;9.27;;;;;;;12.26;64.46;102659.06;4926293;28;122375;-83
2022/01/25 12:40:51;;;;;;;26.15;9.18;;;;;;;12.42;64.14;102680.47;4974096;28;119607;-85
2022/01/25 12:43:40;;;;;;;29.70;9.40;;;;;;;12.44;64.06;102680.06;4940418;28;121141;-87
2022/01/25 12:46:12;;;;;;;33.63;10.35;;;;;;;12.43;64.46;102671.00;4942503;28;120443;-86
2022/01/25 12:48:46;;;;;;;33.90;10.57;;;;;;;12.47;64.57;102670.97;4944869;28;119718;-84
2022/01/25 12:51:16;;;;;;;29.70;10.07;;;;;;;12.43;64.25;102661.97;4971369;28;121391;-87
2022/01/25 12:53:44;;;;;;;31.45;10.90;;;;;;;12.15;64.09;102622.66;4941847;28;120268;-80
2022/01/25 12:56:16;;;;;;;22.35;9.52;;;;;;;12.18;64.06;102621.06;4976837;28;122962;-86
2022/01/25 12:58:42;;;;;;;28.17;9.45;;;;;;;12.47;64.00;102655.22;4973020;28;123030;-82
2022/01/25 13:01:12;;;;;;;30.35;10.18;;;;;;;12.32;63.93;102626.38;4925216;28;120004;-86
2022/01/25 13:03:49;;;;;;;28.70;10.95;;;;;;;12.35;63.69;102630.25;4926708;28;119799;-87
2022/01/25 13:06:39;;;;;;;29.55;10.25;;;;;;;12.50;63.83;102656.38;4955985;28;122259;-87
2022/01/25 13:14:47;;;;;;;25.25;10.95;;;;;;;12.50;64.17;102648.09;4982899;28;123314;-87
2022/01/25 13:17:17;;;;;;;29.57;11.17;;;;;;;12.39;64.22;102620.75;4946991;28;122309;-86
2022/01/25 13:19:47;;;;;;;27.85;10.52;;;;;;;12.57;64.05;102648.03;4943827;28;120519;-85
2022/01/25 13:22:22;;;;;;;32.80;10.95;;;;;;;12.58;64.31;102649.56;4960221;28;120688;-86
2022/01/25 13:25:13;;;;;;;28.80;10.20;;;;;;;12.60;64.56;102645.22;4962147;28;120736;-86
2022/01/25 13:27:50;;;;;;;29.15;10.75;;;;;;;12.52;64.14;102631.94;4944991;28;122844;-86
2022/01/25 13:33:04;;;;;;;28.65;9.95;;;;;;;12.60;63.75;102645.22;4945476;28;120411;-85
2022/01/25 13:35:34;;;;;;;32.60;10.23;;;;;;;12.65;63.63;102654.19;4929035;28;123957;-85
2022/01/25 13:38:12;;;;;;;27.95;10.65;;;;;;;12.57;63.59;102642.50;4950064;28;119556;-86
2022/01/25 13:46:20;;;;;;;27.13;10.82;;;;;;;12.58;63.63;102641.31;4947099;28;121445;-84
2022/01/25 13:48:48;;;;;;;28.30;10.48;;;;;;;12.64;63.87;102653.41;4912151;28;122780;-87
2022/01/25 13:51:17;;;;;;;29.08;10.77;;;;;;;12.55;63.33;102639.41;4958947;28;120038;-87
2022/01/25 13:53:50;;;;;;;27.60;10.05;;;;;;;12.33;63.55;102610.63;4929396;28;122707;-87
2022/01/25 13:56:16;;;;;;;21.67;10.57;;;;;;;12.64;63.74;102652.63;4944041;28;122713;-86
2022/01/25 13:58:47;;;;;;;27.52;10.80;;;;;;;12.64;63.55;102650.66;4971088;28;120001;-85
2022/01/25 14:01:16;;;;;;;27.73;10.07;;;;;;;12.46;63.57;102619.84;4929953;28;122365;-86
2022/01/25 14:03:50;;;;;;;27.10;10.23;;;;;;;12.64;63.51;102644.38;4945011;28;120060;-84
2022/01/25 14:06:31;;;;;;;25.55;10.00;;;;;;;12.66;63.43;102636.47;4944750;28;119929;-86
2022/01/25 14:09:12;;;;;;;23.52;9.48;;;;;;;12.60;63.41;102630.66;4945865;28;120437;-83
2022/01/25 14:25:11;;;;;;;23.10;9.20;;;;;;;12.51;63.09;102628.41;4930864;28;123241;-87
2022/01/25 14:27:50;;;;;;;25.73;8.90;;;;;;;12.60;63.11;102647.97;4974644;28;121233;-85
2022/01/25 14:30:17;;;;;;;23.48;8.80;;;;;;;12.60;63.51;102641.69;4928102;28;121645;-86
2022/01/25 14:32:43;;;;;;;22.77;8.65;;;;;;;12.53;62.60;102642.53;4928244;28;120179;-86
2022/01/25 14:35:11;;;;;;;19.92;8.13;;;;;;;12.46;62.93;102633.63;4928433;28;122219;-84
2022/01/25 14:37:46;;;;;;;20.58;8.50;;;;;;;12.48;63.19;102642.22;4959952;28;122716;-88
2022/01/25 14:40:13;;;;;;;27.95;8.55;;;;;;;12.45;63.17;102632.06;4929842;28;120275;-88
2022/01/25 14:42:41;;;;;;;23.67;9.02;;;;;;;12.19;62.93;102595.88;4975325;28;121387;-87
2022/01/25 14:45:12;;;;;;;28.42;9.10;;;;;;;12.51;63.07;102644.16;4944507;28;124383;-84
2022/01/25 14:47:40;;;;;;;26.70;9.48;;;;;;;12.45;63.12;102637.56;4980947;28;120468;-85
2022/01/25 14:50:15;;;;;;;22.77;8.45;;;;;;;12.29;63.41;102616.16;4940524;28;120050;-83
2022/01/25 14:52:41;;;;;;;20.15;8.93;;;;;;;12.32;63.24;102620.09;4943565;28;120709;-85
2022/01/25 14:55:23;;;;;;;24.88;9.10;;;;;;;12.42;62.91;102641.16;4929212;28;121478;-85
2022/01/25 14:58:03;;;;;;;22.55;8.80;;;;;;;12.38;63.24;102637.69;4958588;28;120414;-87
2022/01/25 15:00:31;;;;;;;25.75;8.45;;;;;;;12.29;63.26;102627.94;4941474;28;119910;-85
2022/01/25 15:02:57;;;;;;;26.15;9.43;;;;;;;12.37;63.10;102630.63;4976619;28;119771;-86
2022/01/25 15:05:22;;;;;;;25.48;8.45;;;;;;;12.30;63.24;102623.22;4924395;28;122992;-83
2022/01/25 15:07:48;;;;;;;24.45;9.00;;;;;;;12.39;62.75;102639.25;4944485;28;119673;-86
2022/01/25 15:10:19;;;;;;;24.83;8.40;;;;;;;12.35;62.87;102636.53;4925453;28;121957;-86
2022/01/25 15:12:48;;;;;;;28.08;8.93;;;;;;;12.23;63.05;102618.59;4945832;28;120112;-84
2022/01/25 15:15:18;;;;;;;20.42;8.70;;;;;;;12.13;63.61;102605.78;4942321;28;122626;-85
2022/01/25 15:17:45;;;;;;;25.00;9.10;;;;;;;12.39;63.40;102642.00;4943608;28;122790;-83
2022/01/25 15:20:12;;;;;;;25.85;9.70;;;;;;;12.17;63.42;102612.00;4927660;28;119692;-85
2022/01/25 15:22:41;;;;;;;23.15;8.32;;;;;;;12.28;63.13;102634.66;4944685;28;119962;-85
2022/01/25 15:25:07;;;;;;;24.95;8.65;;;;;;;12.17;63.09;102611.25;4975818;28;120433;-87
2022/01/25 15:27:34;;;;;;;26.83;8.80;;;;;;;12.36;63.24;102638.09;4961227;28;120127;-85
2022/01/25 15:30:03;;;;;;;23.88;9.00;;;;;;;12.37;63.04;102638.88;4913618;28;121501;-87
2022/01/25 15:32:29;;;;;;;27.95;9.43;;;;;;;12.30;63.11;102628.72;4910723;28;120074;-87
2022/01/25 15:34:55;;;;;;;19.90;9.65;;;;;;;12.29;64.57;102625.19;4943892;28;120528;-87
2022/01/25 15:37:21;;;;;;;30.17;8.90;;;;;;;12.37;63.61;102636.13;4942533;28;120789;-86
2022/01/25 15:39:49;;;;;;;21.23;8.98;;;;;;;12.16;63.01;102610.47;4974014;28;120895;-84
2022/01/25 15:42:16;;;;;;;17.25;9.00;;;;;;;12.33;63.21;102638.16;4945125;28;123262;-87
2022/01/25 15:44:45;;;;;;;17.30;7.82;;;;;;;12.21;63.31;102626.50;4944157;28;120563;-83
2022/01/25 15:47:12;;;;;;;17.40;8.60;;;;;;;12.28;63.53;102640.16;4926456;28;119974;-87
2022/01/25 15:49:40;;;;;;;19.63;8.88;;;;;;;12.27;63.74;102637.81;4944675;28;120631;-85
2022/01/25 15:52:07;;;;;;;18.40;8.00;;;;;;;12.19;63.75;102631.63;4931289;28;123759;-87
2022/01/25 15:54:33;;;;;;;22.10;8.98;;;;;;;12.22;64.49;102635.53;4926689;28;122603;-82
2022/01/25 15:56:59;;;;;;;24.45;9.68;;;;;;;12.13;64.79;102627.81;4910849;28;123062;-85
2022/01/25 15:59:25;;;;;;;20.23;7.90;;;;;;;12.21;64.00;102640.25;4926621;28;121128;-84
2022/01/25 16:01:53;;;;;;;20.90;7.97;;;;;;;12.29;63.85;102651.94;4926216;28;123159;-87
2022/01/25 16:04:25;;;;;;;19.42;8.32;;;;;;;12.09;63.36;102627.06;4954906;28;122506;-85
2022/01/25 16:06:51;;;;;;;24.00;8.40;;;;;;;12.18;63.28;102641.09;4927441;28;120409;-87
2022/01/25 16:09:17;;;;;;;20.02;8.60;;;;;;;12.04;63.33;102622.00;4944251;28;122038;-83
2022/01/25 16:11:44;;;;;;;17.45;7.68;;;;;;;12.19;63.43;102652.88;4926205;28;123450;-83
2022/01/25 16:14:14;;;;;;;19.50;7.45;;;;;;;12.07;63.72;102640.47;4944449;28;120031;-85
2022/01/25 16:16:41;;;;;;;19.67;7.93;;;;;;;12.02;64.17;102635.41;4974199;28;123043;-86
2022/01/25 16:19:17;;;;;;;21.38;7.65;;;;;;;12.07;63.94;102654.22;4941869;28;119598;-82
2022/01/25 16:21:43;;;;;;;18.55;7.63;;;;;;;11.99;63.23;102641.72;4946221;28;119913;-86
2022/01/25 16:24:10;;;;;;;21.48;8.05;;;;;;;11.69;63.71;102591.00;4944169;28;121090;-86
2022/01/25 16:26:36;;;;;;;18.52;7.70;;;;;;;11.77;63.47;102607.41;4923829;28;120191;-85
2022/01/25 16:29:02;;;;;;;17.88;8.00;;;;;;;12.11;63.40;102654.94;4909929;28;122009;-83
2022/01/25 16:33:53;;;;;;;21.70;9.18;;;;;;;11.99;63.60;102638.97;4957950;28;121455;-85
2022/01/25 16:36:20;;;;;;;22.50;8.73;;;;;;;11.74;64.04;102600.75;4943209;28;122343;-86
2022/01/25 16:38:47;;;;;;;18.08;8.52;;;;;;;11.96;63.41;102640.59;4926301;28;119596;-84
2022/01/25 16:41:14;;;;;;;22.73;9.07;;;;;;;12.11;63.35;102657.69;4923174;28;122537;-87
2022/01/25 16:43:41;;;;;;;15.90;9.13;;;;;;;12.11;63.18;102660.44;4925023;28;120480;-83
2022/01/25 16:46:08;;;;;;;18.05;9.57;;;;;;;11.88;64.41;102632.84;4926606;28;120970;-87
2022/01/25 16:48:34;;;;;;;16.25;9.02;;;;;;;11.94;65.27;102618.22;4929256;28;121538;-85
2022/01/25 16:50:59;;;;;;;21.17;9.35;;;;;;;12.15;67.05;102650.16;4907427;28;123497;-86
2022/01/25 16:53:26;;;;;;;18.70;9.25;;;;;;;12.14;65.49;102642.34;4923599;28;120373;-83